createdAt,value
2018-05-08T00:02:25.261Z,13.70
2018-05-08T00:04:52.771Z,13.70
2018-05-08T00:07:21.076Z,13.70
2018-05-08T00:09:48.645Z,13.60
2018-05-08T00:12:16.209Z,13.60
2018-05-08T00:14:43.713Z,13.60
2018-05-08T00:17:11.251Z,13.60
2018-05-08T00:19:38.752Z,13.50
2018-05-08T00:24:46.499Z,13.50
2018-05-08T00:27:14.765Z,13.50
2018-05-08T00:29:43.074Z,13.40
2018-05-08T00:32:10.646Z,13.40
2018-05-08T00:34:38.206Z,13.40
2018-05-08T00:37:05.711Z,13.40
2018-05-08T00:39:33.254Z,13.30
2018-05-08T00:42:00.775Z,13.30
2018-05-08T00:44:29.051Z,13.30
2018-05-08T00:46:57.357Z,13.20
2018-05-08T00:49:24.882Z,13.20
2018-05-08T00:51:52.423Z,13.20
2018-05-08T00:54:32.028Z,13.10
2018-05-08T00:56:59.590Z,13.10
2018-05-08T00:59:27.102Z,13.00
2018-05-08T01:01:54.626Z,13.00
2018-05-08T01:04:22.184Z,13.00
2018-05-08T01:06:49.693Z,13.00
2018-05-08T01:09:17.313Z,12.90
2018-05-08T01:11:44.830Z,12.90
2018-05-08T01:14:12.345Z,12.90
2018-05-08T01:16:39.888Z,12.90
2018-05-08T01:19:08.183Z,12.80
2018-05-08T01:21:35.746Z,12.80
2018-05-08T01:24:03.291Z,12.80
2018-05-08T01:26:30.803Z,12.80
2018-05-08T01:28:58.320Z,12.80
2018-05-08T01:31:25.849Z,12.70
2018-05-08T01:33:53.470Z,12.70
2018-05-08T01:36:20.974Z,12.70
2018-05-08T01:38:48.488Z,12.80
2018-05-08T01:41:16.012Z,12.70
2018-05-08T01:43:43.568Z,12.70
2018-05-08T01:46:11.085Z,12.70
2018-05-08T01:48:38.597Z,12.70
2018-05-08T01:51:06.120Z,12.70
2018-05-08T01:53:33.628Z,12.70
2018-05-08T01:56:01.242Z,12.70
2018-05-08T01:58:28.808Z,12.60
2018-05-08T02:00:56.337Z,12.60
2018-05-08T02:03:23.938Z,12.60
2018-05-08T02:05:51.426Z,12.50
2018-05-08T02:08:18.962Z,12.50
2018-05-08T02:10:46.529Z,12.40
2018-05-08T02:13:14.058Z,12.50
2018-05-08T02:15:42.332Z,12.30
2018-05-08T02:18:09.874Z,12.30
2018-05-08T02:20:37.390Z,12.30
2018-05-08T02:23:04.948Z,12.30
2018-05-08T02:25:33.247Z,12.20
2018-05-08T02:28:00.755Z,12.20
2018-05-08T02:30:28.375Z,12.20
2018-05-08T02:32:55.939Z,12.20
2018-05-08T02:35:23.456Z,12.00
2018-05-08T02:37:50.972Z,12.00
2018-05-08T02:40:18.514Z,12.00
2018-05-08T02:42:46.043Z,12.00
2018-05-08T02:45:13.664Z,12.00
2018-05-08T02:47:41.230Z,12.00
2018-05-08T02:50:08.744Z,11.90
2018-05-08T02:52:36.318Z,11.90
2018-05-08T02:55:03.841Z,11.80
2018-05-08T02:57:31.393Z,11.80
2018-05-08T02:59:58.903Z,11.80
2018-05-08T03:02:26.415Z,11.80
2018-05-08T03:04:53.946Z,11.80
2018-05-08T03:07:22.255Z,11.80
2018-05-08T03:09:49.774Z,11.80
2018-05-08T03:12:17.288Z,11.80
2018-05-08T03:14:44.805Z,11.80
2018-05-08T03:17:12.314Z,11.80
2018-05-08T03:19:39.869Z,11.80
2018-05-08T03:22:07.393Z,11.70
2018-05-08T03:24:34.907Z,11.80
2018-05-08T03:27:03.185Z,11.70
2018-05-08T03:29:30.704Z,11.70
2018-05-08T03:31:59.025Z,11.70
2018-05-08T03:34:26.543Z,11.70
2018-05-08T03:36:54.158Z,11.70
2018-05-08T03:39:21.673Z,11.70
2018-05-08T03:41:49.283Z,11.70
2018-05-08T03:44:16.787Z,11.70
2018-05-08T03:46:44.308Z,11.60
2018-05-08T03:49:11.865Z,11.60
2018-05-08T03:51:39.389Z,11.60
2018-05-08T03:54:06.915Z,11.60
2018-05-08T03:56:34.433Z,11.60
2018-05-08T03:59:02.724Z,11.60
2018-05-08T04:01:42.949Z,11.60
2018-05-08T04:04:23.901Z,11.60
2018-05-08T04:07:03.472Z,11.70
2018-05-08T04:09:31.074Z,11.70
2018-05-08T04:11:58.573Z,11.70
2018-05-08T04:14:26.118Z,11.70
2018-05-08T04:16:53.670Z,11.60
2018-05-08T04:19:21.984Z,11.80
2018-05-08T04:21:50.283Z,11.80
2018-05-08T04:24:17.948Z,11.80
2018-05-08T04:26:45.507Z,11.90
2018-05-08T04:29:13.045Z,12.00
2018-05-08T04:31:40.616Z,12.00
2018-05-08T04:34:08.152Z,12.10
2018-05-08T04:36:36.544Z,12.10
2018-05-08T04:39:04.031Z,12.00
2018-05-08T04:41:31.587Z,12.10
2018-05-08T04:43:59.925Z,12.20
2018-05-08T04:46:27.449Z,12.20
2018-05-08T04:48:54.973Z,12.30
2018-05-08T04:51:23.261Z,12.20
2018-05-08T04:53:50.801Z,12.20
2018-05-08T04:56:18.329Z,12.30
2018-05-08T04:58:45.892Z,12.30
2018-05-08T05:01:13.414Z,12.40
2018-05-08T05:03:41.714Z,12.60
2018-05-08T05:06:09.258Z,12.60
2018-05-08T05:08:37.550Z,12.80
2018-05-08T05:11:05.946Z,12.80
2018-05-08T05:13:33.452Z,12.80
2018-05-08T05:16:01.008Z,12.90
2018-05-08T05:18:28.560Z,12.90
2018-05-08T05:20:56.124Z,12.90
2018-05-08T05:23:23.644Z,12.70
2018-05-08T05:25:51.936Z,12.80
2018-05-08T05:28:20.252Z,12.90
2018-05-08T05:30:47.769Z,12.90
2018-05-08T05:33:16.194Z,13.30
2018-05-08T05:35:43.728Z,13.20
2018-05-08T05:38:12.032Z,13.50
2018-05-08T05:40:39.557Z,13.40
2018-05-08T05:43:07.875Z,13.70
2018-05-08T05:45:35.408Z,13.70
2018-05-08T05:48:02.933Z,13.80
2018-05-08T05:50:30.475Z,13.90
2018-05-08T05:52:58.008Z,13.90
2018-05-08T05:55:26.372Z,13.90
2018-05-08T05:57:53.929Z,13.90
2018-05-08T06:00:21.497Z,14.00
2018-05-08T06:02:49.029Z,14.00
2018-05-08T06:05:16.577Z,14.10
2018-05-08T06:07:44.135Z,14.20
2018-05-08T06:10:11.650Z,14.20
2018-05-08T06:12:39.197Z,14.10
2018-05-08T06:15:06.715Z,14.10
2018-05-08T06:17:34.299Z,14.00
2018-05-08T06:20:01.815Z,14.20
2018-05-08T06:22:30.129Z,14.00
2018-05-08T06:24:58.423Z,14.00
2018-05-08T06:27:25.949Z,13.90
2018-05-08T06:29:53.502Z,14.00
2018-05-08T06:32:21.040Z,14.30
2018-05-08T06:34:48.602Z,14.50
2018-05-08T06:37:16.154Z,14.70
2018-05-08T06:39:43.681Z,14.60
2018-05-08T06:42:11.961Z,14.90
2018-05-08T06:44:40.268Z,14.80
2018-05-08T06:47:07.817Z,14.90
2018-05-08T06:49:36.121Z,15.20
2018-05-08T06:52:03.644Z,15.20
2018-05-08T06:54:31.202Z,15.20
2018-05-08T06:56:58.743Z,15.40
2018-05-08T06:59:26.293Z,15.50
2018-05-08T07:01:53.835Z,15.60
2018-05-08T07:04:21.360Z,15.60
2018-05-08T07:06:48.890Z,15.70
2018-05-08T07:09:16.498Z,15.80
2018-05-08T07:11:43.972Z,15.80
2018-05-08T07:14:12.279Z,15.90
2018-05-08T07:16:39.809Z,15.90
2018-05-08T07:19:07.341Z,15.90
2018-05-08T07:21:34.895Z,15.90
2018-05-08T07:24:02.446Z,16.10
2018-05-08T07:26:29.992Z,15.80
2018-05-08T07:28:57.541Z,15.90
2018-05-08T07:31:25.865Z,16.00
2018-05-08T07:33:54.203Z,16.20
2018-05-08T07:36:21.743Z,16.20
2018-05-08T07:38:49.329Z,16.20
2018-05-08T07:41:17.636Z,16.20
2018-05-08T07:43:45.198Z,16.20
2018-05-08T07:46:12.740Z,16.20
2018-05-08T07:48:41.047Z,16.40
2018-05-08T07:51:08.602Z,16.30
2018-05-08T07:53:36.154Z,16.50
2018-05-08T07:56:04.487Z,16.40
2018-05-08T07:58:32.048Z,16.40
2018-05-08T08:00:59.604Z,16.50
2018-05-08T08:03:27.227Z,16.40
2018-05-08T08:05:54.726Z,16.50
2018-05-08T08:08:22.266Z,16.70
2018-05-08T08:10:50.573Z,16.90
2018-05-08T08:13:18.153Z,17.00
2018-05-08T08:15:45.718Z,17.10
2018-05-08T08:18:13.278Z,17.00
2018-05-08T08:20:40.810Z,17.30
2018-05-08T08:23:09.138Z,17.60
2018-05-08T08:25:36.704Z,17.50
2018-05-08T08:28:04.275Z,17.80
2018-05-08T08:30:31.850Z,17.80
2018-05-08T08:32:59.408Z,18.00
2018-05-08T08:35:26.965Z,18.30
2018-05-08T08:37:54.507Z,18.50
2018-05-08T08:40:22.089Z,18.70
2018-05-08T08:42:49.773Z,18.80
2018-05-08T08:45:17.337Z,18.80
2018-05-08T08:47:44.974Z,18.60
2018-05-08T08:50:12.433Z,18.70
2018-05-08T08:52:39.993Z,18.80
2018-05-08T08:55:07.532Z,18.70
2018-05-08T08:57:35.840Z,18.90
2018-05-08T09:00:03.371Z,18.90
2018-05-08T09:02:30.917Z,19.10
2018-05-08T09:04:58.473Z,19.10
2018-05-08T09:07:26.034Z,19.20
2018-05-08T09:09:53.560Z,19.20
2018-05-08T09:12:21.102Z,19.20
2018-05-08T09:14:49.417Z,18.90
2018-05-08T09:17:16.949Z,18.90
2018-05-08T09:19:45.392Z,18.70
2018-05-08T09:22:12.842Z,18.70
2018-05-08T09:24:40.420Z,19.00
2018-05-08T09:27:07.972Z,19.00
2018-05-08T09:29:35.494Z,19.20
2018-05-08T09:32:03.814Z,19.40
2018-05-08T09:34:31.352Z,19.40
2018-05-08T09:36:58.948Z,19.60
2018-05-08T09:39:26.481Z,19.70
2018-05-08T09:41:54.025Z,19.40
2018-05-08T09:44:22.365Z,19.60
2018-05-08T09:46:49.893Z,19.60
2018-05-08T09:49:17.445Z,19.80
2018-05-08T09:51:45.779Z,20.00
2018-05-08T09:54:13.370Z,20.00
2018-05-08T09:56:40.903Z,20.00
2018-05-08T09:59:08.441Z,20.10
2018-05-08T10:01:36.129Z,20.20
2018-05-08T10:04:03.666Z,20.30
2018-05-08T10:06:32.025Z,20.50
2018-05-08T10:09:00.363Z,20.60
2018-05-08T10:11:27.936Z,20.50
2018-05-08T10:13:55.484Z,20.50
2018-05-08T10:16:23.037Z,20.40
2018-05-08T10:18:51.378Z,20.50
2018-05-08T10:21:18.922Z,20.50
2018-05-08T10:23:46.483Z,20.20
2018-05-08T10:26:14.029Z,20.50
2018-05-08T10:28:41.593Z,20.50
2018-05-08T10:31:09.149Z,20.00
2018-05-08T10:33:37.452Z,20.40
2018-05-08T10:36:05.769Z,20.60
2018-05-08T10:38:33.312Z,20.60
2018-05-08T10:41:00.867Z,20.70
2018-05-08T10:43:28.396Z,20.90
2018-05-08T10:45:55.982Z,21.00
2018-05-08T10:48:23.533Z,21.10
2018-05-08T10:50:51.066Z,21.20
2018-05-08T10:53:19.397Z,21.10
2018-05-08T10:55:46.984Z,21.10
2018-05-08T10:58:14.554Z,21.30
2018-05-08T11:00:42.097Z,21.40
2018-05-08T11:03:09.693Z,21.40
2018-05-08T11:05:37.262Z,21.40
2018-05-08T11:08:05.593Z,21.70
2018-05-08T11:10:33.153Z,21.60
2018-05-08T11:13:00.721Z,21.80
2018-05-08T11:15:29.954Z,21.50
2018-05-08T11:17:57.483Z,21.50
2018-05-08T11:20:25.071Z,21.70
2018-05-08T11:22:52.629Z,21.70
2018-05-08T11:25:20.181Z,21.70
2018-05-08T11:27:47.740Z,21.70
2018-05-08T11:30:15.270Z,21.70
2018-05-08T11:32:43.606Z,22.10
2018-05-08T11:35:11.162Z,22.00
2018-05-08T11:37:38.727Z,22.00
2018-05-08T11:40:06.296Z,21.90
2018-05-08T11:42:34.608Z,21.50
2018-05-08T11:45:02.181Z,21.50
2018-05-08T11:47:29.751Z,21.40
2018-05-08T11:49:57.363Z,21.10
2018-05-08T11:52:24.905Z,21.20
2018-05-08T11:54:53.240Z,21.60
2018-05-08T11:57:20.786Z,21.60
2018-05-08T11:59:48.371Z,21.50
2018-05-08T12:02:15.924Z,21.30
2018-05-08T12:04:43.468Z,21.50
2018-05-08T12:07:11.052Z,21.70
2018-05-08T12:09:38.616Z,21.80
2018-05-08T12:12:06.180Z,21.90
2018-05-08T12:14:33.773Z,22.10
2018-05-08T12:17:01.313Z,21.60
2018-05-08T12:19:28.889Z,21.70
2018-05-08T12:21:56.527Z,21.90
2018-05-08T12:24:23.994Z,21.80
2018-05-08T12:26:51.541Z,21.70
2018-05-08T12:29:19.120Z,21.50
2018-05-08T12:31:46.650Z,21.80
2018-05-08T12:34:14.988Z,21.90
2018-05-08T12:36:42.561Z,21.90
2018-05-08T12:39:10.108Z,22.00
2018-05-08T12:41:37.666Z,22.00
2018-05-08T12:44:05.245Z,22.00
2018-05-08T12:46:32.796Z,21.80
2018-05-08T12:49:00.329Z,21.90
2018-05-08T12:51:28.655Z,22.10
2018-05-08T12:53:56.575Z,22.10
2018-05-08T12:56:24.879Z,22.10
2018-05-08T12:58:52.421Z,22.10
2018-05-08T13:01:20.747Z,22.10
2018-05-08T13:03:48.294Z,22.10
2018-05-08T13:06:16.622Z,21.90
2018-05-08T13:08:44.182Z,21.90
2018-05-08T13:11:11.721Z,22.10
2018-05-08T13:13:39.295Z,22.10
2018-05-08T13:16:06.858Z,22.10
2018-05-08T13:18:34.408Z,22.20
2018-05-08T13:21:02.752Z,22.30
2018-05-08T13:23:30.770Z,22.30
2018-05-08T13:25:58.372Z,22.30
2018-05-08T13:28:26.749Z,21.90
2018-05-08T13:30:54.302Z,21.80
2018-05-08T13:33:21.841Z,21.90
2018-05-08T13:35:49.379Z,22.00
2018-05-08T13:38:17.698Z,22.00
2018-05-08T13:40:45.232Z,22.00
2018-05-08T13:43:13.564Z,22.10
2018-05-08T13:45:41.118Z,22.10
2018-05-08T13:48:08.774Z,22.20
2018-05-08T13:50:36.244Z,22.30
2018-05-08T13:53:03.798Z,22.30
2018-05-08T13:55:31.375Z,22.40
2018-05-08T13:57:58.956Z,22.40
2018-05-08T14:00:26.546Z,22.30
2018-05-08T14:02:54.333Z,22.40
2018-05-08T14:05:21.652Z,22.20
2018-05-08T14:07:49.206Z,22.30
2018-05-08T14:10:16.755Z,22.20
2018-05-08T14:12:44.325Z,22.10
2018-05-08T14:15:11.893Z,22.20
2018-05-08T14:17:39.602Z,22.20
2018-05-08T14:20:07.137Z,22.20
2018-05-08T14:22:34.747Z,22.20
2018-05-08T14:25:03.113Z,22.10
2018-05-08T14:27:30.668Z,22.10
2018-05-08T14:29:58.229Z,21.90
2018-05-08T14:32:25.769Z,21.90
2018-05-08T14:34:53.351Z,21.90
2018-05-08T14:37:20.897Z,22.00
2018-05-08T14:39:48.519Z,22.20
2018-05-08T14:42:16.817Z,22.30
2018-05-08T14:44:44.385Z,22.30
2018-05-08T14:47:12.028Z,22.30
2018-05-08T14:49:40.422Z,22.20
2018-05-08T14:52:07.965Z,22.20
2018-05-08T14:54:35.505Z,22.20
2018-05-08T14:57:03.063Z,22.20
2018-05-08T14:59:30.651Z,21.90
2018-05-08T15:01:58.202Z,22.00
2018-05-08T15:04:25.966Z,21.90
2018-05-08T15:06:53.371Z,22.00
2018-05-08T15:09:21.718Z,22.00
2018-05-08T15:11:49.292Z,21.90
2018-05-08T15:14:16.840Z,22.00
2018-05-08T15:16:44.420Z,22.00
2018-05-08T15:19:11.964Z,22.00
2018-05-08T15:21:39.595Z,21.70
2018-05-08T15:24:07.147Z,21.70
2018-05-08T15:26:35.471Z,21.90
2018-05-08T15:29:03.123Z,21.90
2018-05-08T15:31:30.644Z,21.90
2018-05-08T15:33:58.996Z,21.80
2018-05-08T15:36:26.618Z,21.80
2018-05-08T15:38:54.155Z,21.80
2018-05-08T15:41:21.691Z,21.80
2018-05-08T15:43:49.289Z,21.80
2018-05-08T15:46:16.858Z,21.90
2018-05-08T15:48:45.181Z,21.70
2018-05-08T15:51:12.745Z,21.60
2018-05-08T15:53:40.285Z,21.70
2018-05-08T15:56:08.628Z,21.60
2018-05-08T15:58:36.206Z,21.60
2018-05-08T16:01:03.760Z,21.60
2018-05-08T16:03:31.348Z,21.60
2018-05-08T16:05:59.664Z,21.50
2018-05-08T16:08:27.245Z,21.50
2018-05-08T16:10:55.557Z,21.40
2018-05-08T16:13:23.109Z,21.50
2018-05-08T16:15:50.654Z,21.40
2018-05-08T16:18:18.231Z,21.40
2018-05-08T16:20:45.826Z,21.40
2018-05-08T16:23:13.367Z,21.40
2018-05-08T16:25:40.923Z,21.30
2018-05-08T16:28:08.505Z,21.20
2018-05-08T16:30:36.152Z,21.20
2018-05-08T16:33:03.676Z,21.00
2018-05-08T16:35:32.042Z,20.50
2018-05-08T16:37:59.620Z,20.50
2018-05-08T16:40:27.944Z,20.50
2018-05-08T16:42:55.538Z,20.50
2018-05-08T16:45:23.098Z,20.50
2018-05-08T16:47:50.647Z,20.40
2018-05-08T16:50:18.207Z,20.30
2018-05-08T16:52:45.746Z,20.20
2018-05-08T16:55:13.446Z,20.20
2018-05-08T16:57:41.030Z,20.10
2018-05-08T17:00:08.614Z,20.10
2018-05-08T17:02:36.958Z,20.00
2018-05-08T17:05:04.504Z,20.00
2018-05-08T17:07:32.091Z,20.00
2018-05-08T17:09:59.648Z,19.90
2018-05-08T17:12:27.992Z,19.90
2018-05-08T17:14:55.580Z,19.80
2018-05-08T17:19:55.400Z,19.70
2018-05-08T17:22:22.933Z,19.60
2018-05-08T17:24:50.463Z,19.50
2018-05-08T17:27:18.783Z,19.40
2018-05-08T17:29:46.321Z,19.40
2018-05-08T17:32:13.869Z,19.40
2018-05-08T17:34:42.288Z,19.40
2018-05-08T17:37:09.856Z,19.30
2018-05-08T17:39:37.520Z,19.40
2018-05-08T17:42:05.086Z,19.30
2018-05-08T17:44:32.671Z,19.20
2018-05-08T17:47:00.219Z,19.20
2018-05-08T17:49:27.801Z,19.20
2018-05-08T17:51:55.441Z,19.20
2018-05-08T17:54:23.114Z,19.10
2018-05-08T17:56:50.683Z,19.00
2018-05-08T17:59:18.302Z,19.00
2018-05-08T18:01:46.708Z,19.00
2018-05-08T18:04:14.399Z,19.00
2018-05-08T18:06:42.068Z,19.00
2018-05-08T18:09:09.719Z,19.10
2018-05-08T18:11:37.336Z,19.10
2018-05-08T18:14:04.944Z,19.10
2018-05-08T18:16:32.523Z,19.00
2018-05-08T18:19:00.118Z,19.00
2018-05-08T18:21:27.790Z,18.90
2018-05-08T18:23:55.382Z,18.90
2018-05-08T18:26:22.989Z,18.80
2018-05-08T18:28:50.674Z,18.80
2018-05-08T18:31:18.426Z,18.70
2018-05-08T18:33:46.098Z,18.70
2018-05-08T18:36:14.674Z,18.60
2018-05-08T18:38:43.489Z,18.60
2018-05-08T18:41:11.345Z,18.60
2018-05-08T18:43:40.754Z,18.50
2018-05-08T18:46:09.249Z,18.50
2018-05-08T18:48:38.137Z,18.50
2018-05-08T18:51:07.021Z,18.40
2018-05-08T18:53:34.837Z,18.40
2018-05-08T18:56:05.033Z,18.20
2018-05-08T18:58:33.050Z,18.20
2018-05-08T19:01:00.794Z,18.00
2018-05-08T19:03:28.573Z,17.90
2018-05-08T19:05:56.320Z,17.90
2018-05-08T19:08:24.189Z,17.80
2018-05-08T19:10:57.619Z,17.80
2018-05-08T19:13:26.383Z,17.80
2018-05-08T19:15:59.978Z,17.80
2018-05-08T19:18:33.489Z,17.70
2018-05-08T19:21:01.457Z,17.70
2018-05-08T19:23:29.219Z,17.60
2018-05-08T19:25:56.846Z,17.60
2018-05-08T19:28:31.372Z,17.50
2018-05-08T19:31:00.612Z,17.40
2018-05-08T19:33:28.595Z,17.30
2018-05-08T19:36:02.014Z,17.30
2018-05-08T19:38:30.675Z,17.30
2018-05-08T19:40:58.741Z,17.30
2018-05-08T19:43:26.406Z,17.30
2018-05-08T19:45:54.261Z,17.30
2018-05-08T19:48:21.978Z,17.30
2018-05-08T19:50:49.725Z,17.20
2018-05-08T19:53:17.898Z,17.30
2018-05-08T19:55:45.643Z,17.30
2018-05-08T19:58:13.916Z,17.20
2018-05-08T20:00:42.428Z,17.20
2018-05-08T20:03:10.096Z,17.20
2018-05-08T20:05:37.763Z,17.20
2018-05-08T20:08:08.418Z,17.10
2018-05-08T20:10:37.281Z,17.10
2018-05-08T20:13:04.954Z,17.10
2018-05-08T20:15:32.552Z,17.10
2018-05-08T20:18:00.187Z,17.00
2018-05-08T20:20:28.388Z,17.00
2018-05-08T20:22:55.979Z,17.00
2018-05-08T20:25:23.573Z,16.90
2018-05-08T20:27:51.252Z,16.90
2018-05-08T20:30:18.894Z,16.90
2018-05-08T20:32:47.257Z,16.90
2018-05-08T20:35:16.410Z,16.80
2018-05-08T20:37:44.010Z,16.80
2018-05-08T20:40:12.318Z,16.90
2018-05-08T20:42:39.926Z,16.80
2018-05-08T20:45:07.701Z,16.70
2018-05-08T20:47:35.464Z,16.70
2018-05-08T20:50:03.129Z,16.70
2018-05-08T20:52:31.714Z,16.60
2018-05-08T20:54:59.388Z,16.50
2018-05-08T20:57:27.053Z,16.40
2018-05-08T20:59:54.725Z,16.40
2018-05-08T21:02:22.255Z,16.40
2018-05-08T21:04:50.665Z,16.20
2018-05-08T21:07:18.204Z,16.20
2018-05-08T21:09:46.583Z,16.20
2018-05-08T21:12:14.874Z,16.20
2018-05-08T21:14:43.186Z,16.10
2018-05-08T21:17:10.740Z,16.10
2018-05-08T21:19:38.302Z,16.10
2018-05-08T21:22:05.826Z,16.10
2018-05-08T21:24:34.173Z,15.80
2018-05-08T21:27:01.735Z,15.80
2018-05-08T21:29:34.973Z,15.70
2018-05-08T21:32:03.388Z,15.50
2018-05-08T21:34:30.921Z,15.50
2018-05-08T21:36:59.229Z,15.40
2018-05-08T21:39:26.780Z,15.40
2018-05-08T21:41:55.088Z,15.40
2018-05-08T21:44:22.632Z,15.40
2018-05-08T21:46:50.901Z,15.30
2018-05-08T21:49:19.208Z,15.30
2018-05-08T21:51:46.735Z,15.30
2018-05-08T21:54:14.306Z,15.30
2018-05-08T21:56:42.622Z,15.20
2018-05-08T21:59:10.184Z,15.10
2018-05-08T22:01:37.729Z,15.20
2018-05-08T22:04:06.023Z,15.20
2018-05-08T22:06:33.603Z,15.20
2018-05-08T22:09:01.119Z,15.20
2018-05-08T22:11:29.543Z,15.10
2018-05-08T22:13:57.081Z,15.10
2018-05-08T22:16:25.399Z,15.20
2018-05-08T22:18:52.957Z,15.10
2018-05-08T22:21:20.490Z,15.20
2018-05-08T22:23:48.804Z,15.10
2018-05-08T22:26:16.313Z,15.10
2018-05-08T22:28:43.865Z,15.10
2018-05-08T22:31:11.400Z,15.20
2018-05-08T22:33:38.951Z,15.20
2018-05-08T22:36:06.488Z,15.20
2018-05-08T22:38:34.829Z,15.20
2018-05-08T22:41:02.350Z,15.20
2018-05-08T22:43:29.889Z,15.20
2018-05-08T22:45:57.418Z,15.10
2018-05-08T22:48:24.957Z,14.90
2018-05-08T22:50:52.520Z,14.80
2018-05-08T22:53:20.051Z,14.70
2018-05-08T22:55:48.352Z,14.50
2018-05-08T22:58:15.861Z,14.50
2018-05-08T23:00:43.409Z,14.40
2018-05-08T23:03:10.930Z,14.40
2018-05-08T23:05:39.345Z,14.40
2018-05-08T23:08:06.884Z,14.40
2018-05-08T23:10:35.294Z,14.50
2018-05-08T23:13:02.842Z,14.50
2018-05-08T23:15:30.364Z,14.50
2018-05-08T23:17:57.906Z,14.50
2018-05-08T23:20:25.457Z,14.50
2018-05-08T23:22:53.110Z,14.50
2018-05-08T23:25:20.639Z,14.50
2018-05-08T23:27:48.240Z,14.40
2018-05-08T23:30:15.791Z,14.30
2018-05-08T23:32:43.322Z,14.30
2018-05-08T23:35:10.862Z,14.30
2018-05-08T23:37:38.383Z,14.30
2018-05-08T23:40:05.956Z,14.30
2018-05-08T23:42:33.496Z,14.30
2018-05-08T23:45:01.796Z,14.10
2018-05-08T23:47:29.332Z,14.10
2018-05-08T23:49:56.856Z,14.00
2018-05-08T23:52:24.411Z,14.00
2018-05-08T23:54:51.957Z,13.90
2018-05-08T23:57:19.526Z,13.90
2018-05-08T23:59:47.095Z,13.80
